Time;durP1;ratioP1;P1;durP2;ratioP2;P2;SDS_P1;SDS_P2;PMS_P1;PMS_P2;Temp;Humidity;BMP_temperature;BMP_pressure;BME280_temperature;BME280_humidity;BME280_pressure;Samples;Min_cycle;Max_cycle;Signal;HPM_P1;HPM_P2
2022/01/17 00:02:30;;;;;;;8.27;4.53;;;3.50;99.90;;;;;;10339247;28;20053;-59
2022/01/17 00:07:32;;;;;;;12.43;4.65;;;3.60;99.90;;;;;;10343120;28;20064;-59
2022/01/17 00:12:37;;;;;;;14.23;5.70;;;3.60;99.90;;;;;;10344109;28;20436;-59
2022/01/17 00:17:42;;;;;;;10.52;5.55;;;3.60;99.90;;;;;;10346232;28;20109;-59
2022/01/17 00:22:47;;;;;;;9.75;4.75;;;3.60;99.90;;;;;;10344476;28;20046;-59
2022/01/17 00:27:49;;;;;;;13.18;5.90;;;3.60;99.90;;;;;;10339982;28;20689;-60
2022/01/17 00:32:50;;;;;;;9.68;3.90;;;3.60;99.90;;;;;;10344130;28;20561;-61
2022/01/17 00:37:52;;;;;;;11.45;4.60;;;3.60;99.90;;;;;;10344405;28;20120;-59
2022/01/17 00:42:54;;;;;;;11.68;5.57;;;3.50;99.90;;;;;;10342666;28;20478;-59
2022/01/17 00:47:57;;;;;;;10.02;4.15;;;3.50;99.90;;;;;;10339915;28;20069;-59
2022/01/17 00:53:03;;;;;;;11.43;4.65;;;3.50;99.90;;;;;;10340148;28;20061;-59
2022/01/17 00:58:05;;;;;;;9.45;4.30;;;3.50;99.90;;;;;;10346409;28;20096;-59
2022/01/17 01:03:07;;;;;;;11.18;4.40;;;3.50;99.90;;;;;;10342057;28;20069;-59
2022/01/17 01:08:09;;;;;;;8.93;4.13;;;3.30;99.90;;;;;;10345912;28;20046;-59
2022/01/17 01:13:11;;;;;;;9.38;4.40;;;3.30;99.90;;;;;;10339032;28;20682;-59
2022/01/17 01:18:30;;;;;;;12.73;4.60;;;3.40;99.90;;;;;;10345479;28;20132;-59
2022/01/17 01:28:52;;;;;;;13.63;4.78;;;3.30;99.90;;;;;;10338630;28;20074;-58
2022/01/17 01:33:56;;;;;;;12.23;4.72;;;3.30;99.90;;;;;;10341505;28;20110;-59
2022/01/17 01:38:57;;;;;;;12.32;4.68;;;3.30;99.90;;;;;;10338196;28;20139;-60
2022/01/17 01:43:59;;;;;;;10.45;4.90;;;3.30;99.90;;;;;;10343576;28;20073;-59
2022/01/17 01:49:01;;;;;;;11.23;4.70;;;3.30;99.90;;;;;;10340280;28;20484;-59
2022/01/17 01:54:04;;;;;;;9.65;4.38;;;3.40;99.90;;;;;;10338009;28;20165;-59
2022/01/17 01:59:06;;;;;;;14.48;5.60;;;3.30;99.90;;;;;;10341283;28;20077;-59
2022/01/17 02:04:07;;;;;;;10.68;4.60;;;3.20;99.90;;;;;;10337396;28;20100;-59
2022/01/17 02:09:10;;;;;;;18.02;5.20;;;3.20;99.90;;;;;;10341494;28;20128;-59
2022/01/17 02:14:12;;;;;;;13.80;5.95;;;3.30;99.90;;;;;;10339268;28;20081;-59
2022/01/17 02:19:13;;;;;;;11.18;4.72;;;3.20;99.90;;;;;;10342032;28;20053;-59
2022/01/17 02:24:18;;;;;;;16.08;4.88;;;3.20;99.90;;;;;;10339464;28;20046;-61
2022/01/17 02:29:21;;;;;;;16.17;5.10;;;3.20;99.90;;;;;;10345417;28;20050;-59
2022/01/17 02:34:23;;;;;;;12.43;5.07;;;3.20;99.90;;;;;;10347983;28;20054;-59
2022/01/17 02:39:24;;;;;;;14.25;5.82;;;3.20;99.90;;;;;;10346227;28;20531;-61
2022/01/17 02:44:26;;;;;;;16.00;5.60;;;3.20;99.90;;;;;;10347148;28;20104;-60
2022/01/17 02:49:28;;;;;;;14.48;5.30;;;3.20;99.90;;;;;;10345399;28;20562;-59
2022/01/17 02:54:29;;;;;;;13.32;4.90;;;3.20;99.90;;;;;;10347656;28;20061;-59
2022/01/17 02:59:31;;;;;;;12.88;4.97;;;3.10;99.90;;;;;;10346095;28;20061;-59
2022/01/17 03:04:33;;;;;;;11.35;5.00;;;3.20;99.90;;;;;;10350995;28;20107;-59
2022/01/17 03:09:44;;;;;;;11.82;4.90;;;3.20;99.90;;;;;;10347561;28;20076;-60
2022/01/17 03:14:46;;;;;;;13.70;5.65;;;3.20;99.90;;;;;;10345994;28;20145;-59
2022/01/17 03:19:47;;;;;;;12.90;5.25;;;3.30;99.90;;;;;;10345788;28;20080;-59
2022/01/17 03:24:49;;;;;;;14.35;4.65;;;3.30;99.90;;;;;;10344353;28;20104;-59
2022/01/17 03:29:51;;;;;;;11.88;5.38;;;3.20;99.90;;;;;;10346989;28;20049;-59
2022/01/17 03:34:55;;;;;;;11.57;5.20;;;3.30;99.90;;;;;;10344428;28;20088;-59
2022/01/17 03:39:57;;;;;;;12.10;4.75;;;3.30;99.90;;;;;;10345135;28;20143;-59
2022/01/17 03:45:00;;;;;;;12.90;5.38;;;3.30;99.90;;;;;;10339300;28;20464;-59
2022/01/17 03:50:05;;;;;;;12.13;4.35;;;3.30;99.90;;;;;;10342663;28;20135;-59
2022/01/17 03:55:14;;;;;;;13.10;5.15;;;3.30;99.90;;;;;;10345887;28;20197;-62
2022/01/17 04:00:20;;;;;;;14.30;6.20;;;3.30;99.90;;;;;;10342523;28;20856;-61
2022/01/17 04:05:22;;;;;;;10.93;4.57;;;3.30;99.90;;;;;;10345477;28;20108;-59
2022/01/17 04:10:24;;;;;;;11.43;4.32;;;3.30;99.90;;;;;;10348363;28;20135;-60
2022/01/17 04:15:25;;;;;;;11.07;4.93;;;3.30;99.90;;;;;;10343283;28;20081;-59
2022/01/17 04:20:28;;;;;;;13.93;4.43;;;3.30;99.90;;;;;;10334723;28;20074;-59
2022/01/17 04:25:32;;;;;;;12.85;4.60;;;3.30;99.90;;;;;;10345082;28;20049;-60
2022/01/17 04:30:35;;;;;;;10.13;4.30;;;3.30;99.90;;;;;;10352585;28;20547;-60
2022/01/17 04:35:38;;;;;;;10.82;4.15;;;3.40;99.90;;;;;;10340864;28;20052;-60
2022/01/17 04:40:40;;;;;;;10.90;4.28;;;3.30;99.90;;;;;;10347553;28;20049;-59
2022/01/17 04:45:42;;;;;;;14.27;4.72;;;3.30;99.90;;;;;;10341989;28;20111;-59
2022/01/17 04:50:44;;;;;;;15.55;3.95;;;3.30;99.90;;;;;;10337598;28;20061;-58
2022/01/17 04:55:46;;;;;;;9.05;3.50;;;3.40;99.90;;;;;;10344160;28;20058;-59
2022/01/17 05:00:48;;;;;;;10.15;4.30;;;3.40;99.90;;;;;;10344933;28;20496;-59
2022/01/17 05:05:50;;;;;;;11.75;4.28;;;3.50;99.90;;;;;;10357794;28;20471;-59
2022/01/17 05:10:54;;;;;;;10.20;3.25;;;3.50;99.90;;;;;;10333965;28;20481;-59
2022/01/17 05:16:10;;;;;;;10.20;3.63;;;3.60;99.90;;;;;;10343907;28;20046;-59
2022/01/17 05:21:13;;;;;;;5.40;2.70;;;3.70;99.90;;;;;;10345870;28;20124;-59
2022/01/17 05:26:15;;;;;;;11.68;4.03;;;3.70;99.90;;;;;;10335577;28;20053;-59
2022/01/17 05:31:16;;;;;;;10.05;3.30;;;3.70;99.90;;;;;;10345929;28;20458;-60
2022/01/17 05:36:18;;;;;;;10.13;3.60;;;3.80;99.90;;;;;;10343128;28;20469;-59
2022/01/17 05:41:20;;;;;;;9.73;3.50;;;3.80;99.90;;;;;;10345862;28;20119;-59
2022/01/17 05:46:21;;;;;;;7.47;3.40;;;3.80;99.90;;;;;;10336823;28;20053;-59
2022/01/17 05:51:23;;;;;;;10.43;4.03;;;3.80;99.90;;;;;;10343649;28;20054;-60
2022/01/17 05:56:25;;;;;;;8.45;3.55;;;3.90;99.90;;;;;;10344705;28;20189;-59
2022/01/17 06:01:27;;;;;;;7.40;3.53;;;3.90;99.90;;;;;;10339440;28;20547;-59
2022/01/17 06:06:28;;;;;;;7.70;3.33;;;3.90;99.90;;;;;;10352290;28;20060;-59
2022/01/17 06:11:33;;;;;;;11.43;4.15;;;4.00;99.90;;;;;;10343131;28;20037;-59
2022/01/17 06:16:36;;;;;;;8.00;3.65;;;4.00;99.90;;;;;;10349348;28;20401;-59
2022/01/17 06:21:40;;;;;;;8.23;3.03;;;4.00;99.90;;;;;;10343814;28;20144;-59
2022/01/17 06:26:43;;;;;;;8.43;2.97;;;4.00;99.90;;;;;;10345145;28;20053;-59
2022/01/17 06:31:45;;;;;;;7.57;2.90;;;4.10;99.90;;;;;;10349423;28;20100;-59
2022/01/17 06:36:48;;;;;;;5.90;2.88;;;4.10;99.90;;;;;;10343585;28;20104;-59
2022/01/17 06:41:50;;;;;;;8.93;3.92;;;4.10;99.90;;;;;;10344813;28;20076;-61
2022/01/17 06:46:52;;;;;;;8.07;3.00;;;4.10;99.90;;;;;;10346866;28;20108;-60
2022/01/17 06:51:54;;;;;;;4.60;2.65;;;4.10;99.90;;;;;;10348637;28;20077;-59
2022/01/17 06:56:55;;;;;;;6.30;3.13;;;4.10;99.90;;;;;;10341511;28;20424;-60
2022/01/17 07:01:57;;;;;;;8.35;2.83;;;4.10;99.90;;;;;;10343366;28;20046;-59
2022/01/17 07:07:00;;;;;;;5.93;2.22;;;4.10;99.90;;;;;;10346704;28;20061;-59
2022/01/17 07:12:03;;;;;;;6.25;2.92;;;4.10;99.90;;;;;;10345627;28;20575;-60
2022/01/17 07:17:04;;;;;;;10.70;3.15;;;4.10;99.90;;;;;;10345864;28;20142;-62
2022/01/17 07:22:07;;;;;;;6.18;2.53;;;4.10;99.90;;;;;;10344579;28;20077;-61
2022/01/17 07:27:12;;;;;;;6.65;3.08;;;4.10;99.90;;;;;;10345548;28;20073;-61
2022/01/17 07:32:14;;;;;;;7.78;3.15;;;4.10;99.90;;;;;;10339979;28;20054;-62
2022/01/17 07:37:16;;;;;;;6.93;2.88;;;4.20;99.90;;;;;;10342439;28;20084;-62
2022/01/17 07:42:18;;;;;;;7.50;2.85;;;4.20;99.90;;;;;;10343861;28;20085;-61
2022/01/17 07:47:39;;;;;;;9.05;3.15;;;4.20;99.90;;;;;;10346981;28;20057;-62
2022/01/17 07:52:41;;;;;;;6.50;3.20;;;4.20;99.90;;;;;;10343257;28;20042;-61
2022/01/17 07:57:43;;;;;;;8.38;2.88;;;4.20;99.90;;;;;;10338989;28;20131;-61
2022/01/17 08:02:45;;;;;;;30.80;8.77;;;4.10;99.90;;;;;;10345009;28;20046;-61
2022/01/17 08:07:47;;;;;;;8.38;4.40;;;4.10;99.90;;;;;;10348364;28;20050;-61
2022/01/17 08:12:49;;;;;;;5.20;2.85;;;4.20;99.90;;;;;;10342515;28;20140;-61
2022/01/17 08:17:51;;;;;;;6.45;2.42;;;4.20;99.90;;;;;;10345597;28;20077;-61
2022/01/17 08:22:53;;;;;;;6.75;2.65;;;4.30;99.90;;;;;;10343415;28;20058;-61
2022/01/17 08:27:54;;;;;;;7.30;2.95;;;4.60;99.90;;;;;;10341355;28;20054;-61
2022/01/17 08:32:56;;;;;;;6.05;1.75;;;4.60;99.90;;;;;;10340662;28;20073;-62
2022/01/17 08:37:58;;;;;;;6.88;2.20;;;4.80;99.90;;;;;;10346091;28;20053;-61
2022/01/17 08:43:00;;;;;;;3.38;1.50;;;5.00;99.90;;;;;;10341979;28;20073;-62
2022/01/17 08:48:04;;;;;;;5.65;2.28;;;5.10;99.90;;;;;;10342682;28;20045;-62
2022/01/17 08:53:10;;;;;;;7.03;2.83;;;5.10;99.90;;;;;;10337971;28;20396;-61
2022/01/17 08:58:13;;;;;;;10.63;2.47;;;4.90;99.90;;;;;;10340496;28;20049;-61
2022/01/17 09:03:15;;;;;;;6.10;2.35;;;5.00;99.90;;;;;;10342430;28;20054;-61
2022/01/17 09:08:18;;;;;;;5.90;2.15;;;5.00;99.90;;;;;;10338408;28;20092;-61
2022/01/17 09:13:20;;;;;;;3.90;1.55;;;5.10;99.90;;;;;;10339394;28;20450;-61
2022/01/17 09:18:24;;;;;;;5.18;2.05;;;5.40;99.90;;;;;;10337857;28;20065;-62
2022/01/17 09:23:26;;;;;;;6.05;1.60;;;5.70;99.90;;;;;;10337446;28;20100;-61
2022/01/17 09:28:28;;;;;;;4.82;1.65;;;5.80;99.90;;;;;;10341026;28;20562;-61
2022/01/17 09:33:30;;;;;;;3.28;2.22;;;6.00;99.90;;;;;;10339852;28;20485;-62
2022/01/17 09:38:32;;;;;;;11.50;2.85;;;5.90;99.90;;;;;;10340687;28;20077;-62
2022/01/17 09:43:35;;;;;;;14.48;5.20;;;6.00;99.90;;;;;;10341556;28;20104;-62
2022/01/17 09:48:39;;;;;;;5.53;2.40;;;5.90;99.90;;;;;;10341675;28;20053;-63
2022/01/17 09:53:42;;;;;;;7.47;3.05;;;5.80;99.90;;;;;;10331287;28;20104;-63
2022/01/17 09:58:45;;;;;;;7.68;2.97;;;5.80;99.90;;;;;;10333905;28;20039;-61
2022/01/17 10:03:47;;;;;;;7.10;3.28;;;5.90;99.90;;;;;;10345078;28;20073;-61
2022/01/17 10:08:49;;;;;;;8.07;2.70;;;5.80;99.90;;;;;;10335613;28;20042;-61
2022/01/17 10:13:50;;;;;;;5.68;2.55;;;5.80;99.90;;;;;;10341404;28;20123;-61
2022/01/17 10:19:04;;;;;;;7.63;3.28;;;5.80;99.90;;;;;;10343942;28;20128;-61
2022/01/17 10:40:02;;;;;;;4.90;2.92;;;5.80;99.90;;;;;;10337189;28;20042;-61
2022/01/17 10:45:11;;;;;;;9.32;3.70;;;5.70;99.90;;;;;;10336233;28;20143;-62
2022/01/17 10:50:22;;;;;;;7.10;3.05;;;5.70;99.90;;;;;;10337176;28;20046;-62
2022/01/17 10:55:36;;;;;;;4.93;2.25;;;5.70;99.90;;;;;;10345211;28;20477;-61
2022/01/17 11:00:46;;;;;;;6.07;2.33;;;5.90;99.90;;;;;;10340718;28;20079;-62
2022/01/17 11:05:52;;;;;;;6.90;2.20;;;5.90;99.90;;;;;;10355794;28;20145;-61
2022/01/17 11:11:00;;;;;;;9.25;2.45;;;5.90;99.90;;;;;;10344855;28;20042;-61
2022/01/17 11:16:07;;;;;;;5.22;2.20;;;5.90;99.90;;;;;;10344560;28;20117;-62
2022/01/17 11:21:14;;;;;;;6.05;2.33;;;6.10;99.90;;;;;;10342738;28;20042;-62
2022/01/17 11:26:17;;;;;;;11.02;2.38;;;6.10;99.90;;;;;;10343916;28;20451;-62
2022/01/17 11:31:19;;;;;;;5.72;2.47;;;6.00;99.90;;;;;;10342382;28;20749;-62
2022/01/17 11:36:21;;;;;;;7.40;2.38;;;6.00;99.90;;;;;;10343772;28;20069;-62
2022/01/17 11:41:30;;;;;;;8.77;2.75;;;6.00;99.90;;;;;;10344141;28;20168;-62
2022/01/17 11:46:34;;;;;;;6.85;2.55;;;6.00;99.90;;;;;;10341119;28;20590;-63
2022/01/17 11:51:44;;;;;;;6.90;2.35;;;6.00;99.90;;;;;;10341946;28;20050;-62
2022/01/17 11:56:56;;;;;;;5.63;2.83;;;6.00;99.90;;;;;;10345511;28;20119;-62
2022/01/17 12:02:28;;;;;;;6.95;2.38;;;6.00;99.90;;;;;;10343394;28;20115;-62
2022/01/17 12:07:53;;;;;;;8.80;2.97;;;6.00;99.90;;;;;;10345156;28;20081;-62
2022/01/17 12:13:14;;;;;;;6.40;2.30;;;6.10;99.90;;;;;;10340088;28;20049;-62
2022/01/17 12:18:35;;;;;;;7.40;2.97;;;6.20;99.90;;;;;;10343571;28;20054;-63
2022/01/17 12:23:36;;;;;;;6.28;2.50;;;6.30;99.90;;;;;;10343671;28;20077;-62
2022/01/17 12:28:52;;;;;;;10.32;2.65;;;6.40;99.90;;;;;;10340886;28;20196;-62
2022/01/17 12:34:14;;;;;;;8.63;2.67;;;6.40;99.90;;;;;;10339318;28;20319;-62
2022/01/17 12:39:17;;;;;;;7.88;2.10;;;6.50;99.90;;;;;;10339011;28;20050;-62
2022/01/17 12:44:26;;;;;;;6.07;2.90;;;6.60;99.90;;;;;;10338798;28;20049;-62
2022/01/17 12:49:30;;;;;;;6.38;2.28;;;6.90;99.90;;;;;;10343485;28;20090;-62
2022/01/17 12:54:33;;;;;;;7.03;3.28;;;7.00;99.90;;;;;;10342884;28;20172;-62
2022/01/17 12:59:35;;;;;;;6.60;3.30;;;7.00;99.90;;;;;;10345823;28;20623;-62
2022/01/17 13:04:36;;;;;;;6.13;2.67;;;7.10;99.90;;;;;;10342887;28;20095;-60
2022/01/17 13:09:40;;;;;;;7.18;2.97;;;7.10;99.90;;;;;;10345138;28;20484;-60
2022/01/17 13:14:42;;;;;;;10.40;3.42;;;7.10;99.90;;;;;;10338833;28;20127;-61
2022/01/17 13:19:43;;;;;;;5.95;2.60;;;7.10;99.90;;;;;;10344863;28;20626;-62
2022/01/17 13:24:54;;;;;;;10.38;3.63;;;7.10;99.90;;;;;;10343882;28;20046;-62
2022/01/17 13:29:56;;;;;;;9.07;3.33;;;7.00;99.90;;;;;;10337598;28;20046;-62
2022/01/17 13:35:09;;;;;;;7.95;3.30;;;7.10;99.90;;;;;;10339663;28;20046;-62
2022/01/17 13:40:33;;;;;;;7.68;3.45;;;7.10;99.90;;;;;;10337066;28;20050;-62
2022/01/17 13:45:42;;;;;;;5.90;2.72;;;7.00;99.90;;;;;;10337258;28;20065;-62
2022/01/17 13:51:02;;;;;;;8.65;3.08;;;7.00;99.90;;;;;;10339761;28;20045;-62
2022/01/17 13:56:07;;;;;;;6.95;2.42;;;7.00;99.90;;;;;;10338909;28;20054;-62
2022/01/17 14:01:14;;;;;;;8.18;2.95;;;7.10;99.90;;;;;;10339651;28;20092;-62
2022/01/17 14:06:16;;;;;;;10.03;3.43;;;7.10;99.90;;;;;;10341442;28;20045;-62
2022/01/17 14:11:24;;;;;;;9.13;3.60;;;7.00;99.90;;;;;;10339489;28;20332;-63
2022/01/17 14:16:30;;;;;;;7.85;4.05;;;7.10;99.90;;;;;;10339163;28;20524;-62
2022/01/17 14:21:37;;;;;;;9.02;3.90;;;7.00;99.90;;;;;;10336954;28;20063;-62
2022/01/17 14:26:42;;;;;;;8.63;4.10;;;7.00;99.90;;;;;;10337051;28;20457;-61
2022/01/17 14:31:45;;;;;;;13.40;4.30;;;6.90;99.90;;;;;;10344201;28;20049;-61
2022/01/17 14:37:01;;;;;;;12.10;4.75;;;7.00;99.90;;;;;;10346494;28;20056;-61
2022/01/17 14:42:29;;;;;;;10.77;4.57;;;6.90;99.90;;;;;;10347066;28;20058;-62
2022/01/17 14:47:39;;;;;;;11.35;4.93;;;7.00;99.90;;;;;;10348974;28;20054;-61
2022/01/17 14:52:47;;;;;;;6.85;3.50;;;7.00;99.90;;;;;;10347312;28;20093;-62
2022/01/17 15:03:16;;;;;;;9.77;4.22;;;7.00;99.90;;;;;;10350142;28;20069;-61
2022/01/17 15:08:18;;;;;;;7.00;3.42;;;7.00;99.90;;;;;;10342973;28;20392;-62
2022/01/17 15:13:20;;;;;;;11.13;3.90;;;7.00;99.90;;;;;;10349957;28;20112;-62
2022/01/17 15:18:22;;;;;;;12.45;4.07;;;7.10;99.90;;;;;;10348482;28;20050;-62
2022/01/17 15:29:39;;;;;;;6.57;3.22;;;7.10;99.90;;;;;;10340664;28;20066;-61
2022/01/17 15:34:41;;;;;;;6.30;3.80;;;7.20;99.90;;;;;;10344475;28;20325;-61
2022/01/17 15:39:44;;;;;;;9.77;4.57;;;7.10;99.90;;;;;;10346640;28;20188;-62
2022/01/17 15:44:45;;;;;;;9.38;4.07;;;7.20;99.90;;;;;;10341762;28;20046;-62
2022/01/17 15:49:48;;;;;;;6.40;4.07;;;7.20;99.90;;;;;;10343521;28;20046;-61
2022/01/17 15:54:50;;;;;;;6.68;3.60;;;7.10;99.90;;;;;;10346530;28;20112;-61
2022/01/17 15:59:52;;;;;;;7.07;3.20;;;7.10;99.90;;;;;;10343379;28;20061;-61
2022/01/17 16:04:53;;;;;;;7.45;3.17;;;7.10;99.90;;;;;;10340907;28;20131;-61
2022/01/17 16:09:55;;;;;;;6.82;3.70;;;7.10;99.90;;;;;;10343439;28;20104;-60
2022/01/17 16:14:56;;;;;;;7.50;3.28;;;7.10;99.90;;;;;;10341088;28;20509;-59
2022/01/17 16:19:58;;;;;;;5.78;3.22;;;7.10;99.90;;;;;;10341063;28;20710;-62
2022/01/17 16:25:02;;;;;;;6.43;3.63;;;7.10;99.90;;;;;;10342731;28;20133;-62
2022/01/17 16:30:05;;;;;;;6.85;3.58;;;7.10;99.90;;;;;;10340125;28;20116;-62
2022/01/17 16:35:07;;;;;;;6.20;3.30;;;7.10;99.90;;;;;;10340293;28;22809;-61
2022/01/17 16:40:09;;;;;;;7.30;3.30;;;7.10;99.90;;;;;;10340314;28;20684;-59
2022/01/17 16:45:12;;;;;;;4.57;2.35;;;7.10;99.90;;;;;;10336953;28;20057;-59
2022/01/17 16:50:16;;;;;;;4.72;2.60;;;7.10;99.90;;;;;;10342289;28;20042;-60
2022/01/17 16:55:18;;;;;;;6.82;3.45;;;7.20;99.90;;;;;;10340341;28;20132;-60
2022/01/17 17:00:20;;;;;;;5.90;2.95;;;7.20;99.90;;;;;;10337547;28;20066;-60
2022/01/17 17:05:22;;;;;;;8.07;2.40;;;7.20;99.90;;;;;;10340760;28;20115;-59
2022/01/17 17:10:24;;;;;;;6.43;2.50;;;7.20;99.90;;;;;;10342721;28;20135;-60
2022/01/17 17:15:26;;;;;;;6.07;2.72;;;7.20;99.90;;;;;;10345238;28;20521;-62
2022/01/17 17:20:29;;;;;;;6.85;3.08;;;7.20;99.90;;;;;;10343520;28;20514;-60
2022/01/17 17:25:30;;;;;;;7.65;2.97;;;7.20;99.90;;;;;;10344097;28;20139;-60
2022/01/17 17:30:32;;;;;;;6.95;3.28;;;7.20;99.90;;;;;;10344246;28;20045;-60
2022/01/17 17:35:36;;;;;;;4.40;2.50;;;7.30;99.90;;;;;;10342184;28;20104;-60
2022/01/17 17:40:40;;;;;;;4.60;2.38;;;7.30;99.90;;;;;;10341972;28;20054;-60
2022/01/17 17:45:42;;;;;;;5.45;2.78;;;7.40;99.90;;;;;;10334965;28;20111;-61
2022/01/17 17:50:44;;;;;;;5.18;2.40;;;7.50;99.90;;;;;;10341933;28;20053;-61
2022/01/17 17:55:45;;;;;;;5.07;2.40;;;7.50;99.90;;;;;;10340691;28;20167;-60
2022/01/17 18:00:47;;;;;;;9.88;3.42;;;7.50;99.90;;;;;;10344717;28;20500;-60
2022/01/17 18:05:49;;;;;;;5.88;2.33;;;7.70;99.90;;;;;;10348278;28;20437;-61
2022/01/17 18:10:50;;;;;;;4.45;2.35;;;7.70;99.90;;;;;;10347003;28;20061;-60
2022/01/17 18:15:52;;;;;;;5.22;2.90;;;7.80;99.90;;;;;;10346954;28;20408;-61
2022/01/17 18:20:55;;;;;;;5.63;2.70;;;7.70;99.90;;;;;;10348252;28;20515;-60
2022/01/17 18:25:57;;;;;;;6.22;2.28;;;7.80;99.90;;;;;;10344253;28;20121;-60
2022/01/17 18:30:59;;;;;;;5.72;3.50;;;7.80;99.90;;;;;;10339553;28;20127;-59
2022/01/17 18:36:03;;;;;;;8.68;3.67;;;7.80;99.90;;;;;;10343269;28;20136;-60
2022/01/17 18:41:05;;;;;;;6.95;2.65;;;7.70;99.90;;;;;;10342942;28;20141;-60
2022/01/17 18:46:07;;;;;;;7.65;3.28;;;7.60;99.90;;;;;;10342480;28;20081;-60
2022/01/17 18:51:11;;;;;;;8.25;2.53;;;7.60;99.90;;;;;;10339925;28;20050;-60
2022/01/17 18:56:13;;;;;;;6.88;2.65;;;7.60;99.90;;;;;;10343183;28;20074;-60
2022/01/17 19:01:18;;;;;;;5.45;2.50;;;7.70;99.90;;;;;;10343578;28;20046;-60
2022/01/17 19:06:20;;;;;;;7.78;2.50;;;7.80;99.90;;;;;;10344650;28;20045;-60
2022/01/17 19:11:22;;;;;;;5.05;2.38;;;7.80;99.90;;;;;;10339908;28;20500;-60
2022/01/17 19:16:24;;;;;;;7.38;2.17;;;7.80;99.90;;;;;;10341975;28;20101;-62
2022/01/17 19:26:40;;;;;;;4.22;1.75;;;7.80;99.90;;;;;;10340989;28;20061;-61
2022/01/17 19:31:43;;;;;;;9.70;2.75;;;7.80;99.90;;;;;;10346400;28;20112;-59
2022/01/17 19:36:46;;;;;;;11.52;2.80;;;7.90;99.90;;;;;;10342946;28;20461;-60
2022/01/17 19:41:48;;;;;;;8.00;2.72;;;7.80;99.90;;;;;;10342057;28;20054;-61
2022/01/17 19:46:50;;;;;;;5.97;2.30;;;7.80;99.90;;;;;;10338959;28;20081;-60
2022/01/17 19:51:52;;;;;;;7.43;3.40;;;7.80;99.90;;;;;;10342883;28;20514;-60
2022/01/17 19:56:54;;;;;;;7.47;3.60;;;7.70;99.90;;;;;;10344594;28;20123;-60
2022/01/17 20:01:56;;;;;;;9.68;3.58;;;7.70;99.90;;;;;;10344561;28;20139;-59
2022/01/17 20:06:57;;;;;;;12.13;4.50;;;7.60;99.90;;;;;;10344826;28;20499;-60
2022/01/17 20:11:59;;;;;;;10.95;6.00;;;7.60;99.90;;;;;;10345281;28;20069;-60
2022/01/17 20:17:04;;;;;;;13.98;6.10;;;7.50;99.90;;;;;;10333274;28;20085;-60
2022/01/17 20:22:09;;;;;;;15.15;5.35;;;7.40;99.90;;;;;;10338038;28;20053;-60
2022/01/17 20:27:11;;;;;;;11.70;4.25;;;7.50;99.90;;;;;;10343501;28;20046;-60
2022/01/17 20:32:12;;;;;;;17.17;6.35;;;7.40;99.90;;;;;;10343011;28;20104;-59
2022/01/17 20:37:14;;;;;;;14.85;6.50;;;7.30;99.90;;;;;;10341667;28;20131;-59
2022/01/17 20:42:16;;;;;;;11.57;3.45;;;7.20;99.90;;;;;;10341348;28;20136;-60
2022/01/17 20:47:17;;;;;;;13.52;2.20;;;7.30;99.90;;;;;;10341975;28;20192;-60
2022/01/17 20:52:19;;;;;;;5.40;1.60;;;7.40;99.90;;;;;;10348057;28;20046;-61
2022/01/17 20:57:20;;;;;;;6.18;1.30;;;7.50;99.90;;;;;;10341806;28;20045;-59
2022/01/17 21:02:22;;;;;;;5.45;1.67;;;7.60;99.90;;;;;;10350547;28;20081;-60
2022/01/17 21:07:24;;;;;;;4.10;1.30;;;7.80;99.90;;;;;;10341640;28;20046;-59
2022/01/17 21:12:25;;;;;;;8.88;1.77;;;7.80;99.90;;;;;;10340783;28;20124;-58
2022/01/17 21:17:28;;;;;;;4.82;1.73;;;7.90;99.90;;;;;;10332389;28;20081;-59
2022/01/17 21:22:29;;;;;;;6.88;1.67;;;7.90;99.90;;;;;;10339495;28;20070;-59
2022/01/17 21:27:31;;;;;;;7.13;1.73;;;7.90;99.90;;;;;;10342411;28;20063;-59
2022/01/17 21:32:33;;;;;;;9.18;2.17;;;7.90;99.90;;;;;;10338390;28;20070;-59
2022/01/17 21:37:36;;;;;;;7.00;2.78;;;7.90;99.90;;;;;;10337712;28;20049;-59
2022/01/17 21:42:38;;;;;;;5.57;1.95;;;7.90;99.90;;;;;;10338436;28;20144;-59
2022/01/17 21:47:40;;;;;;;7.95;1.95;;;7.90;99.90;;;;;;10335731;28;20070;-59
2022/01/17 21:52:42;;;;;;;6.57;1.88;;;7.90;99.90;;;;;;10332740;28;20058;-59
2022/01/17 21:57:44;;;;;;;7.80;2.80;;;7.80;99.90;;;;;;10333637;28;21244;-58
2022/01/17 22:02:46;;;;;;;8.55;2.17;;;7.80;99.90;;;;;;10331168;28;20069;-59
2022/01/17 22:07:49;;;;;;;10.32;2.92;;;7.80;99.90;;;;;;10333984;28;20057;-58
2022/01/17 22:12:50;;;;;;;5.70;2.63;;;7.70;99.90;;;;;;10342593;28;20074;-58
2022/01/17 22:17:53;;;;;;;9.65;2.33;;;7.60;99.90;;;;;;10340983;28;20112;-58
2022/01/17 22:22:54;;;;;;;12.38;2.83;;;7.50;99.90;;;;;;10302095;28;20509;-59
2022/01/17 22:27:59;;;;;;;6.72;3.00;;;7.40;99.90;;;;;;10338492;28;20115;-59
2022/01/17 22:33:02;;;;;;;10.48;2.35;;;7.40;99.90;;;;;;10340230;28;20081;-59
2022/01/17 22:38:04;;;;;;;10.93;2.72;;;7.40;99.90;;;;;;10343350;28;20104;-59
2022/01/17 22:43:10;;;;;;;11.35;2.50;;;7.30;99.90;;;;;;10341296;28;20157;-59
2022/01/17 22:48:12;;;;;;;9.35;2.50;;;7.40;99.90;;;;;;10343066;28;20586;-58
2022/01/17 22:53:15;;;;;;;9.60;2.83;;;7.30;99.90;;;;;;10348349;28;20050;-58
2022/01/17 22:58:18;;;;;;;7.13;1.70;;;7.30;99.90;;;;;;10347829;28;20053;-59
2022/01/17 23:03:19;;;;;;;9.88;2.63;;;7.30;99.90;;;;;;10346107;28;20420;-58
2022/01/17 23:08:21;;;;;;;10.10;2.25;;;7.30;99.90;;;;;;10342119;28;20500;-59
2022/01/17 23:13:23;;;;;;;8.73;3.25;;;7.30;99.90;;;;;;10347934;28;20058;-60
2022/01/17 23:18:33;;;;;;;8.80;1.98;;;7.20;99.90;;;;;;10346104;28;20489;-59
2022/01/17 23:23:34;;;;;;;10.88;2.25;;;7.30;99.90;;;;;;10343038;28;20084;-59
2022/01/17 23:28:45;;;;;;;9.55;3.80;;;7.20;99.90;;;;;;10345173;28;20582;-59
2022/01/17 23:34:01;;;;;;;12.95;2.70;;;7.20;99.90;;;;;;10340908;28;20077;-59
2022/01/17 23:39:08;;;;;;;10.23;2.78;;;7.20;99.90;;;;;;10349751;28;20488;-59
2022/01/17 23:44:10;;;;;;;10.73;3.10;;;7.10;99.90;;;;;;10342664;28;20539;-59
2022/01/17 23:49:12;;;;;;;5.85;2.58;;;7.10;99.90;;;;;;10351688;28;20484;-61
2022/01/17 23:54:14;;;;;;;9.75;2.95;;;7.10;99.90;;;;;;10344188;28;20133;-59
2022/01/17 23:59:26;;;;;;;14.55;3.55;;;7.00;99.90;;;;;;10342691;28;20045;-59
